Terminal Aerodrome Forecast
Issued by NWS Huntsville, AL

Home | Current Version | Previous Version | Text Only | Print | Product List | Glossary On
Versions: 1 2 3 4 5 6 7 8 9 10 11 12
000
FTUS44 KHUN 281725
TAFMSL
TAF
KMSL 281725Z 2818/2918 19011KT P6SM FEW060 SCT250
     FM282100 16005KT P6SM VCSH BKN050 BKN150
     FM290400 VRB03KT P6SM SCT150
     FM291400 29005KT P6SM SCT200=

USA.gov is the U.S. government's official web portal to all federal, state and local government web resources and services.